createdAt,value
2023-05-01T00:00:09.119Z,7.38
2023-05-01T00:02:37.832Z,6.88
2023-05-01T00:05:05.462Z,5.15
2023-05-01T00:07:33.231Z,7.43
2023-05-01T00:10:00.956Z,5.38
2023-05-01T00:12:28.254Z,5.85
2023-05-01T00:14:55.589Z,4.22
2023-05-01T00:17:23.803Z,4.78
2023-05-01T00:19:54.328Z,7.15
2023-05-01T00:22:22.180Z,6.25
2023-05-01T00:24:50.177Z,6.00
2023-05-01T00:27:17.470Z,5.45
2023-05-01T00:29:44.792Z,4.90
2023-05-01T00:32:12.162Z,5.60
2023-05-01T00:34:39.703Z,6.97
2023-05-01T00:37:08.370Z,5.85
2023-05-01T00:39:35.883Z,5.57
2023-05-01T00:42:03.622Z,6.78
2023-05-01T00:44:31.190Z,7.00
2023-05-01T00:47:00.736Z,7.68
2023-05-01T00:49:27.988Z,7.55
2023-05-01T00:51:55.345Z,6.78
2023-05-01T00:54:25.080Z,5.70
2023-05-01T00:56:52.600Z,8.55
2023-05-01T00:59:19.980Z,7.53
2023-05-01T01:01:47.674Z,5.20
2023-05-01T01:04:15.162Z,5.10
2023-05-01T01:06:45.726Z,4.97
2023-05-01T01:09:18.918Z,5.97
2023-05-01T01:11:54.172Z,5.47
2023-05-01T01:14:26.674Z,5.57
2023-05-01T01:16:55.835Z,7.88
2023-05-01T01:19:34.317Z,5.35
2023-05-01T01:22:03.655Z,4.90
2023-05-01T01:24:43.638Z,7.70
2023-05-01T01:27:31.247Z,5.18
2023-05-01T01:30:13.984Z,5.68
2023-05-01T01:33:01.209Z,7.47
2023-05-01T01:35:31.443Z,6.20
2023-05-01T01:38:02.103Z,7.25
2023-05-01T01:40:32.934Z,5.70
2023-05-01T01:43:03.687Z,7.75
2023-05-01T01:45:31.990Z,7.38
2023-05-01T01:47:59.526Z,5.78
2023-05-01T01:50:27.959Z,6.68
2023-05-01T01:52:59.353Z,4.03
2023-05-01T01:55:28.516Z,5.95
2023-05-01T01:57:56.822Z,5.03
2023-05-01T02:00:24.488Z,5.38
2023-05-01T02:02:53.079Z,3.83
2023-05-01T02:05:21.057Z,6.70
2023-05-01T02:07:49.845Z,5.97
2023-05-01T02:10:19.246Z,7.68
2023-05-01T02:12:47.500Z,7.28
2023-05-01T02:15:15.959Z,5.93
2023-05-01T02:17:43.628Z,4.72
2023-05-01T02:20:12.574Z,6.28
2023-05-01T02:22:40.872Z,10.80
2023-05-01T02:25:09.499Z,6.88
2023-05-01T02:27:39.722Z,4.35
2023-05-01T02:30:07.693Z,9.68
2023-05-01T02:32:35.316Z,8.98
2023-05-01T02:35:02.706Z,8.55
2023-05-01T02:37:31.030Z,6.75
2023-05-01T02:39:59.058Z,7.43
2023-05-01T02:42:27.846Z,6.05
2023-05-01T02:44:58.387Z,7.28
2023-05-01T02:47:27.180Z,6.47
2023-05-01T02:49:55.476Z,6.18
2023-05-01T02:52:23.021Z,5.60
2023-05-01T02:54:50.717Z,5.05
2023-05-01T02:57:18.178Z,9.18
2023-05-01T02:59:45.431Z,7.50
2023-05-01T03:02:14.107Z,5.13
2023-05-01T03:04:41.665Z,5.18
2023-05-01T03:07:09.125Z,6.85
2023-05-01T03:09:36.936Z,7.82
2023-05-01T03:12:04.333Z,6.93
2023-05-01T03:14:31.628Z,5.57
2023-05-01T03:16:58.973Z,4.25
2023-05-01T03:19:28.000Z,6.00
2023-05-01T03:21:55.305Z,6.38
2023-05-01T03:24:22.595Z,6.07
2023-05-01T03:26:49.873Z,5.85
2023-05-01T03:29:18.275Z,5.63
2023-05-01T03:31:45.689Z,6.80
2023-05-01T03:34:12.954Z,5.13
2023-05-01T03:36:41.553Z,8.45
2023-05-01T03:39:09.465Z,4.57
2023-05-01T03:41:36.797Z,6.35
2023-05-01T03:44:04.337Z,9.80
2023-05-01T03:46:31.671Z,11.55
2023-05-01T03:48:59.582Z,9.93
2023-05-01T03:51:27.301Z,6.07
2023-05-01T03:53:56.682Z,7.30
2023-05-01T03:56:25.618Z,7.38
2023-05-01T03:58:52.906Z,6.28
2023-05-01T04:01:20.584Z,5.40
2023-05-01T04:03:48.141Z,6.32
2023-05-01T04:06:17.150Z,6.97
2023-05-01T04:08:44.579Z,8.77
2023-05-01T04:11:13.211Z,6.50
2023-05-01T04:13:40.604Z,6.93
2023-05-01T04:16:08.434Z,6.57
2023-05-01T04:18:35.740Z,7.55
2023-05-01T04:21:03.600Z,6.70
2023-05-01T04:23:30.906Z,5.95
2023-05-01T04:25:58.182Z,6.50
2023-05-01T04:28:27.817Z,10.00
2023-05-01T04:30:55.121Z,6.53
2023-05-01T04:33:22.447Z,6.72
2023-05-01T04:35:50.004Z,6.35
2023-05-01T04:38:17.273Z,8.23
2023-05-01T04:40:44.537Z,7.28
2023-05-01T04:43:12.004Z,5.93
2023-05-01T04:45:40.910Z,8.30
2023-05-01T04:48:08.263Z,6.45
2023-05-01T04:50:35.750Z,5.15
2023-05-01T04:53:03.108Z,6.68
2023-05-01T04:55:31.223Z,7.32
2023-05-01T04:57:58.650Z,8.70
2023-05-01T05:00:27.870Z,9.40
2023-05-01T05:02:56.636Z,7.97
2023-05-01T05:05:23.981Z,7.22
2023-05-01T05:07:51.249Z,7.57
2023-05-01T05:10:18.575Z,8.50
2023-05-01T05:12:45.868Z,9.43
2023-05-01T05:15:13.145Z,10.35
2023-05-01T05:17:40.463Z,8.38
2023-05-01T05:20:09.898Z,8.23
2023-05-01T05:22:37.801Z,7.60
2023-05-01T05:25:06.661Z,8.30
2023-05-01T05:27:38.014Z,7.65
2023-05-01T05:30:05.870Z,8.93
2023-05-01T05:32:33.520Z,7.70
2023-05-01T05:35:00.871Z,7.32
2023-05-01T05:37:29.693Z,6.70
2023-05-01T05:39:57.688Z,9.75
2023-05-01T05:42:25.221Z,7.20
2023-05-01T05:44:52.934Z,8.20
2023-05-01T05:47:20.223Z,8.18
2023-05-01T05:49:48.018Z,7.88
2023-05-01T05:52:15.282Z,7.25
2023-05-01T05:54:43.961Z,6.75
2023-05-01T05:57:11.750Z,9.80
2023-05-01T05:59:39.075Z,7.28
2023-05-01T06:02:06.389Z,7.45
2023-05-01T06:04:33.730Z,6.07
2023-05-01T06:07:01.161Z,7.80
2023-05-01T06:09:28.463Z,7.70
2023-05-01T06:11:58.214Z,7.95
2023-05-01T06:14:25.906Z,8.20
2023-05-01T06:16:53.222Z,7.40
2023-05-01T06:19:20.747Z,6.82
2023-05-01T06:21:48.074Z,7.72
2023-05-01T06:24:15.842Z,8.70
2023-05-01T06:26:43.109Z,6.65
2023-05-01T06:29:11.774Z,6.25
2023-05-01T06:31:39.095Z,7.90
2023-05-01T06:34:06.413Z,9.23
2023-05-01T06:36:33.671Z,10.38
2023-05-01T06:39:00.966Z,7.25
2023-05-01T06:41:28.262Z,10.68
2023-05-01T06:43:55.687Z,6.47
2023-05-01T06:46:24.343Z,8.95
2023-05-01T06:48:51.665Z,5.82
2023-05-01T06:51:19.008Z,5.03
2023-05-01T06:53:46.309Z,7.97
2023-05-01T06:56:13.589Z,8.00
2023-05-01T06:58:40.890Z,6.68
2023-05-01T07:01:08.245Z,5.28
2023-05-01T07:03:36.935Z,5.90
2023-05-01T07:06:04.426Z,7.10
2023-05-01T07:08:31.969Z,7.80
2023-05-01T07:10:59.289Z,7.72
2023-05-01T07:13:26.852Z,7.88
2023-05-01T07:15:54.649Z,6.30
2023-05-01T07:18:22.384Z,6.57
2023-05-01T07:20:51.127Z,4.70
2023-05-01T07:23:18.430Z,7.05
2023-05-01T07:25:46.319Z,5.60
2023-05-01T07:28:13.685Z,5.65
2023-05-01T07:30:41.240Z,5.20
2023-05-01T07:33:08.561Z,9.40
2023-05-01T07:35:35.866Z,7.30
2023-05-01T07:38:04.509Z,7.72
2023-05-01T07:40:33.489Z,5.35
2023-05-01T07:43:00.959Z,4.22
2023-05-01T07:45:28.407Z,5.65
2023-05-01T07:47:56.891Z,7.28
2023-05-01T07:50:24.900Z,5.38
2023-05-01T07:52:52.678Z,6.03
2023-05-01T07:55:22.067Z,5.65
2023-05-01T07:57:49.382Z,6.28
2023-05-01T08:00:17.365Z,7.60
2023-05-01T08:02:44.738Z,6.82
2023-05-01T08:05:12.136Z,6.65
2023-05-01T08:07:39.433Z,8.10
2023-05-01T08:10:07.334Z,8.00
2023-05-01T08:12:36.017Z,6.13
2023-05-01T08:15:03.367Z,5.90
2023-05-01T08:17:30.872Z,4.90
2023-05-01T08:19:58.289Z,5.75
2023-05-01T08:22:25.729Z,4.88
2023-05-01T08:24:53.208Z,6.22
2023-05-01T08:27:20.723Z,4.30
2023-05-01T08:29:49.657Z,4.45
2023-05-01T08:32:18.090Z,5.05
2023-05-01T08:34:45.584Z,7.55
2023-05-01T08:37:12.924Z,4.50
2023-05-01T08:39:40.214Z,5.88
2023-05-01T08:42:07.612Z,4.80
2023-05-01T08:44:38.681Z,4.70
2023-05-01T08:47:13.172Z,4.25
2023-05-01T08:49:41.449Z,5.05
2023-05-01T08:52:09.488Z,6.50
2023-05-01T08:54:38.890Z,4.95
2023-05-01T08:57:08.997Z,5.25
2023-05-01T08:59:38.044Z,6.70
2023-05-01T09:02:06.339Z,4.65
2023-05-01T09:04:35.968Z,7.65
2023-05-01T09:07:03.424Z,4.72
2023-05-01T09:09:31.213Z,6.13
2023-05-01T09:12:10.113Z,6.07
2023-05-01T09:14:38.641Z,5.28
2023-05-01T09:17:05.968Z,3.83
2023-05-01T09:19:34.616Z,3.75
2023-05-01T09:22:02.033Z,6.90
2023-05-01T09:24:29.318Z,5.93
2023-05-01T09:26:58.072Z,6.60
2023-05-01T09:29:37.988Z,7.00
2023-05-01T09:32:13.774Z,6.85
2023-05-01T09:34:43.469Z,4.93
2023-05-01T09:37:11.820Z,6.07
2023-05-01T09:39:39.129Z,4.35
2023-05-01T09:42:06.496Z,6.07
2023-05-01T09:44:41.256Z,6.32
2023-05-01T09:47:09.068Z,6.18
2023-05-01T09:49:48.092Z,8.95
2023-05-01T09:52:15.624Z,6.93
2023-05-01T09:54:43.105Z,6.88
2023-05-01T09:57:10.725Z,8.00
2023-05-01T09:59:38.626Z,6.05
2023-05-01T10:02:05.990Z,5.45
2023-05-01T10:04:34.000Z,5.13
2023-05-01T10:07:13.049Z,4.00
2023-05-01T10:09:41.105Z,5.65
2023-05-01T10:12:08.520Z,5.15
2023-05-01T10:14:49.873Z,7.22
2023-05-01T10:17:19.085Z,5.25
2023-05-01T10:19:47.018Z,4.75
2023-05-01T10:22:16.195Z,5.95
2023-05-01T10:24:45.388Z,5.85
2023-05-01T10:27:12.902Z,5.43
2023-05-01T10:29:41.415Z,4.45
2023-05-01T10:32:09.409Z,7.15
2023-05-01T10:34:38.083Z,4.68
2023-05-01T10:37:07.593Z,5.13
2023-05-01T10:39:37.160Z,4.43
2023-05-01T10:42:05.375Z,3.85
2023-05-01T10:44:34.555Z,5.15
2023-05-01T10:47:21.918Z,6.40
2023-05-01T10:50:05.836Z,3.85
2023-05-01T10:52:56.865Z,5.68
2023-05-01T10:55:36.059Z,5.78
2023-05-01T10:58:03.642Z,5.40
2023-05-01T11:00:31.065Z,3.20
2023-05-01T11:03:25.535Z,4.45
2023-05-01T11:06:07.924Z,5.80
2023-05-01T11:08:36.406Z,4.25
2023-05-01T11:11:22.802Z,5.55
2023-05-01T11:13:58.624Z,3.83
2023-05-01T11:16:41.940Z,5.32
2023-05-01T11:19:10.628Z,6.78
2023-05-01T11:21:38.847Z,4.00
2023-05-01T11:24:06.723Z,4.75
2023-05-01T11:26:37.962Z,5.55
2023-05-01T11:29:07.197Z,4.68
2023-05-01T11:31:34.782Z,6.88
2023-05-01T11:34:02.204Z,3.33
2023-05-01T11:36:30.147Z,5.15
2023-05-01T11:38:59.455Z,6.15
2023-05-01T11:41:27.607Z,4.03
2023-05-01T11:43:55.797Z,5.53
2023-05-01T11:46:28.443Z,4.57
2023-05-01T11:48:56.096Z,2.85
2023-05-01T11:51:24.759Z,3.88
2023-05-01T11:54:01.460Z,5.32
2023-05-01T11:56:28.944Z,4.70
2023-05-01T11:58:57.430Z,4.30
2023-05-01T12:01:35.885Z,4.90
2023-05-01T12:04:03.317Z,5.65
2023-05-01T12:06:40.318Z,6.60
2023-05-01T12:09:08.507Z,5.53
2023-05-01T12:11:36.112Z,5.20
2023-05-01T12:14:03.980Z,5.25
2023-05-01T12:16:31.305Z,5.22
2023-05-01T12:19:00.174Z,5.25
2023-05-01T12:21:28.052Z,4.95
2023-05-01T12:23:58.117Z,4.78
2023-05-01T12:26:26.058Z,3.85
2023-05-01T12:28:57.315Z,4.03
2023-05-01T12:31:25.296Z,4.32
2023-05-01T12:33:56.491Z,5.20
2023-05-01T12:36:28.492Z,2.42
2023-05-01T12:38:57.000Z,2.65
2023-05-01T12:41:33.278Z,2.72
2023-05-01T12:44:00.607Z,3.65
2023-05-01T12:46:28.216Z,3.13
2023-05-01T12:48:56.022Z,3.75
2023-05-01T12:51:24.820Z,7.65
2023-05-01T12:53:57.143Z,3.42
2023-05-01T12:56:39.626Z,3.88
2023-05-01T12:59:06.943Z,1.95
2023-05-01T13:01:34.614Z,1.92
2023-05-01T13:04:01.979Z,3.80
2023-05-01T13:06:34.526Z,3.20
2023-05-01T13:09:09.210Z,3.20
2023-05-01T13:11:36.789Z,2.90
2023-05-01T13:14:08.617Z,1.70
2023-05-01T13:16:36.133Z,3.60
2023-05-01T13:19:06.299Z,4.07
2023-05-01T13:21:34.972Z,5.60
2023-05-01T13:24:02.740Z,4.43
2023-05-01T13:26:31.406Z,7.05
2023-05-01T13:28:59.789Z,4.47
2023-05-01T13:31:27.177Z,4.22
2023-05-01T13:33:54.988Z,6.63
2023-05-01T13:36:26.340Z,6.47
2023-05-01T13:38:56.977Z,5.13
2023-05-01T13:41:25.450Z,11.73
2023-05-01T13:43:53.442Z,6.70
2023-05-01T13:46:21.563Z,6.43
2023-05-01T13:48:49.114Z,9.50
2023-05-01T13:51:21.034Z,5.43
2023-05-01T13:53:48.346Z,5.70
2023-05-01T13:56:17.029Z,5.28
2023-05-01T13:58:44.685Z,5.78
2023-05-01T14:01:20.480Z,4.50
2023-05-01T14:03:48.383Z,6.82
2023-05-01T14:06:16.376Z,5.53
2023-05-01T14:08:44.386Z,4.45
2023-05-01T14:11:12.455Z,6.38
2023-05-01T14:13:42.813Z,4.68
2023-05-01T14:16:11.360Z,7.53
2023-05-01T14:18:44.213Z,7.85
2023-05-01T14:21:11.573Z,5.20
2023-05-01T14:23:41.937Z,8.90
2023-05-01T14:26:09.498Z,6.03
2023-05-01T14:28:41.936Z,8.45
2023-05-01T14:31:12.010Z,7.20
2023-05-01T14:33:42.269Z,9.52
2023-05-01T14:36:09.660Z,5.93
2023-05-01T14:38:39.100Z,7.25
2023-05-01T14:41:08.268Z,7.38
2023-05-01T14:43:36.690Z,7.63
2023-05-01T14:46:04.053Z,6.85
2023-05-01T14:48:35.433Z,7.00
2023-05-01T14:51:04.813Z,6.78
2023-05-01T14:53:32.635Z,9.07
2023-05-01T14:56:00.023Z,7.57
2023-05-01T14:58:27.303Z,8.50
2023-05-01T15:00:55.058Z,7.40
2023-05-01T15:03:22.441Z,7.75
2023-05-01T15:05:51.175Z,6.40
2023-05-01T15:08:18.492Z,8.73
2023-05-01T15:10:45.890Z,8.05
2023-05-01T15:13:13.278Z,6.43
2023-05-01T15:15:40.614Z,8.88
2023-05-01T15:18:07.986Z,6.43
2023-05-01T15:20:35.353Z,8.27
2023-05-01T15:23:04.022Z,8.55
2023-05-01T15:25:31.460Z,10.32
2023-05-01T15:27:58.824Z,9.82
2023-05-01T15:30:26.095Z,11.73
2023-05-01T15:32:55.533Z,10.65
2023-05-01T15:35:23.526Z,12.45
2023-05-01T15:37:51.376Z,10.75
2023-05-01T15:40:20.172Z,9.30
2023-05-01T15:42:48.092Z,10.00
2023-05-01T15:45:15.553Z,9.90
2023-05-01T15:47:42.998Z,9.82
2023-05-01T15:50:11.619Z,7.95
2023-05-01T15:52:38.972Z,5.10
2023-05-01T15:55:06.775Z,4.10
2023-05-01T15:57:35.914Z,4.65
2023-05-01T16:00:04.285Z,5.57
2023-05-01T16:02:32.603Z,5.30
2023-05-01T16:05:00.178Z,4.07
2023-05-01T16:07:29.513Z,4.45
2023-05-01T16:09:57.892Z,5.22
2023-05-01T16:12:25.635Z,6.07
2023-05-01T16:14:54.561Z,4.85
2023-05-01T16:17:22.453Z,5.25
2023-05-01T16:19:50.261Z,5.18
2023-05-01T16:22:17.832Z,4.90
2023-05-01T16:24:45.666Z,6.13
2023-05-01T16:27:13.055Z,5.72
2023-05-01T16:29:40.821Z,6.90
2023-05-01T16:32:11.177Z,8.15
2023-05-01T16:34:39.276Z,6.72
2023-05-01T16:37:07.057Z,7.50
2023-05-01T16:39:36.693Z,8.02
2023-05-01T16:42:04.256Z,7.65
2023-05-01T16:44:31.611Z,12.10
2023-05-01T16:46:59.393Z,10.98
2023-05-01T16:49:29.282Z,9.10
2023-05-01T16:51:58.357Z,9.63
2023-05-01T16:54:31.595Z,9.02
2023-05-01T16:56:59.144Z,9.45
2023-05-01T16:59:27.876Z,9.98
2023-05-01T17:01:55.598Z,12.30
2023-05-01T17:04:23.081Z,9.68
2023-05-01T17:06:52.048Z,11.18
2023-05-01T17:09:19.977Z,10.82
2023-05-01T17:11:47.273Z,10.73
2023-05-01T17:14:14.585Z,11.07
2023-05-01T17:16:42.033Z,13.40
2023-05-01T17:19:09.740Z,12.38
2023-05-01T17:21:37.170Z,12.20
2023-05-01T17:24:06.000Z,13.10
2023-05-01T17:26:33.328Z,13.43
2023-05-01T17:29:02.768Z,14.35
2023-05-01T17:31:30.710Z,13.23
2023-05-01T17:33:58.040Z,12.50
2023-05-01T17:36:25.376Z,11.63
2023-05-01T17:38:53.385Z,11.55
2023-05-01T17:41:22.209Z,13.77
2023-05-01T17:43:49.533Z,12.65
2023-05-01T17:46:17.898Z,14.23
2023-05-01T17:48:45.213Z,14.18
2023-05-01T17:51:13.997Z,13.75
2023-05-01T17:53:41.358Z,16.55
2023-05-01T17:56:08.729Z,15.45
2023-05-01T17:58:37.437Z,14.80
2023-05-01T18:01:05.669Z,13.85
2023-05-01T18:03:33.430Z,13.13
2023-05-01T18:06:01.503Z,14.50
2023-05-01T18:08:28.973Z,13.35
2023-05-01T18:10:56.334Z,13.70
2023-05-01T18:13:27.741Z,12.50
2023-05-01T18:15:56.646Z,13.80
2023-05-01T18:18:23.995Z,11.60
2023-05-01T18:20:51.658Z,12.73
2023-05-01T18:23:19.123Z,16.45
2023-05-01T18:25:46.514Z,13.77
2023-05-01T18:28:16.161Z,15.18
2023-05-01T18:30:43.605Z,14.52
2023-05-01T18:33:12.712Z,16.00
2023-05-01T18:35:41.591Z,18.13
2023-05-01T18:38:08.978Z,15.95
2023-05-01T18:40:36.344Z,15.05
2023-05-01T18:43:03.621Z,16.08
2023-05-01T18:45:30.925Z,17.38
2023-05-01T18:48:00.291Z,19.27
2023-05-01T18:50:29.144Z,22.80
2023-05-01T18:52:56.584Z,20.88
2023-05-01T18:55:25.008Z,22.08
2023-05-01T18:57:52.438Z,20.77
2023-05-01T19:00:21.176Z,21.10
2023-05-01T19:02:51.537Z,21.08
2023-05-01T19:05:19.560Z,20.55
2023-05-01T19:07:48.304Z,20.83
2023-05-01T19:10:15.635Z,20.83
2023-05-01T19:12:42.982Z,21.92
2023-05-01T19:15:10.969Z,22.52
2023-05-01T19:17:38.361Z,23.10
2023-05-01T19:20:06.286Z,21.70
2023-05-01T19:22:33.654Z,21.20
2023-05-01T19:25:02.363Z,21.25
2023-05-01T19:27:29.679Z,21.15
2023-05-01T19:30:00.580Z,21.23
2023-05-01T19:32:29.133Z,20.65
2023-05-01T19:34:56.645Z,20.77
2023-05-01T19:37:23.978Z,20.15
2023-05-01T19:39:51.292Z,18.90
2023-05-01T19:42:19.952Z,19.27
2023-05-01T19:44:47.284Z,19.55
2023-05-01T19:47:14.583Z,17.60
2023-05-01T19:49:41.900Z,19.98
2023-05-01T19:52:10.116Z,17.63
2023-05-01T19:54:37.504Z,19.55
2023-05-01T19:57:04.812Z,19.30
2023-05-01T19:59:39.296Z,20.85
2023-05-01T20:02:15.324Z,19.75
2023-05-01T20:04:46.308Z,20.50
2023-05-01T20:07:13.803Z,22.55
2023-05-01T20:09:41.119Z,22.70
2023-05-01T20:12:08.497Z,23.38
2023-05-01T20:14:37.161Z,22.40
2023-05-01T20:17:06.137Z,23.92
2023-05-01T20:19:33.677Z,24.45
2023-05-01T20:22:00.990Z,25.15
2023-05-01T20:24:28.300Z,25.27
2023-05-01T20:26:55.848Z,24.33
2023-05-01T20:29:23.291Z,28.63
2023-05-01T20:31:52.309Z,24.42
2023-05-01T20:34:20.638Z,25.23
2023-05-01T20:36:47.967Z,25.92
2023-05-01T20:39:15.351Z,24.73
2023-05-01T20:41:42.651Z,25.23
2023-05-01T20:44:10.504Z,25.98
2023-05-01T20:46:37.891Z,25.63
2023-05-01T20:49:08.481Z,28.17
2023-05-01T20:51:35.799Z,28.80
2023-05-01T20:54:03.115Z,30.50
2023-05-01T20:56:30.411Z,31.58
2023-05-01T20:59:00.048Z,30.77
2023-05-01T21:01:27.445Z,32.58
2023-05-01T21:03:54.953Z,32.85
2023-05-01T21:06:23.696Z,33.85
2023-05-01T21:08:51.222Z,34.83
2023-05-01T21:11:18.549Z,36.60
2023-05-01T21:13:45.855Z,39.20
2023-05-01T21:16:14.813Z,39.40
2023-05-01T21:18:42.218Z,37.22
2023-05-01T21:21:09.619Z,36.03
2023-05-01T21:23:47.685Z,40.22
2023-05-01T21:26:15.036Z,38.17
2023-05-01T21:28:43.355Z,41.03
2023-05-01T21:31:11.666Z,39.92
2023-05-01T21:33:39.497Z,39.22
2023-05-01T21:36:07.191Z,40.38
2023-05-01T21:38:35.608Z,41.30
2023-05-01T21:41:04.368Z,40.17
2023-05-01T21:43:32.802Z,38.45
2023-05-01T21:46:00.178Z,38.85
2023-05-01T21:48:30.024Z,37.60
2023-05-01T21:50:57.315Z,40.83
2023-05-01T21:53:24.801Z,37.33
2023-05-01T21:55:52.120Z,43.60
2023-05-01T21:58:20.768Z,39.35
2023-05-01T22:00:48.083Z,39.05
2023-05-01T22:03:17.174Z,41.53
2023-05-01T22:05:45.391Z,41.22
2023-05-01T22:08:12.732Z,43.40
2023-05-01T22:10:40.968Z,43.15
2023-05-01T22:13:08.307Z,42.22
2023-05-01T22:15:36.949Z,44.53
2023-05-01T22:18:04.590Z,41.72
2023-05-01T22:20:32.363Z,42.60
2023-05-01T22:22:59.672Z,42.17
2023-05-01T22:25:27.002Z,45.95
2023-05-01T22:27:54.292Z,42.95
2023-05-01T22:30:21.655Z,37.38
2023-05-01T22:32:50.374Z,40.80
2023-05-01T22:35:17.899Z,45.17
2023-05-01T22:37:45.178Z,41.67
2023-05-01T22:40:12.888Z,38.10
2023-05-01T22:42:40.175Z,41.10
2023-05-01T22:45:08.411Z,40.00
2023-05-01T22:47:35.867Z,42.92
2023-05-01T22:50:04.697Z,39.22
2023-05-01T22:52:32.021Z,45.17
2023-05-01T22:54:59.315Z,43.90
2023-05-01T22:57:26.671Z,44.75
2023-05-01T22:59:54.116Z,47.78
2023-05-01T23:02:21.912Z,50.40
2023-05-01T23:04:49.316Z,47.78
2023-05-01T23:07:18.117Z,47.78
2023-05-01T23:09:46.533Z,50.17
2023-05-01T23:12:16.342Z,48.67
2023-05-01T23:14:44.391Z,47.67
2023-05-01T23:17:12.412Z,49.40
2023-05-01T23:19:41.112Z,47.88
2023-05-01T23:22:09.271Z,51.03
2023-05-01T23:24:41.674Z,55.15
2023-05-01T23:27:09.162Z,52.45
2023-05-01T23:29:36.519Z,53.88
2023-05-01T23:32:03.956Z,51.35
2023-05-01T23:34:31.442Z,54.95
2023-05-01T23:36:58.762Z,54.55
2023-05-01T23:39:26.148Z,57.50
2023-05-01T23:41:55.114Z,57.50
2023-05-01T23:44:22.434Z,56.30
2023-05-01T23:46:49.782Z,58.95
2023-05-01T23:49:17.176Z,63.15
2023-05-01T23:51:44.447Z,55.17
2023-05-01T23:54:11.743Z,55.13
2023-05-01T23:56:39.087Z,58.30
2023-05-01T23:59:08.068Z,55.58
